Time;durP1;ratioP1;P1;durP2;ratioP2;P2;SDS_P1;SDS_P2;PMS_P1;PMS_P2;Temp;Humidity;BMP_temperature;BMP_pressure;BME280_temperature;BME280_humidity;BME280_pressure;Samples;Min_cycle;Max_cycle;Signal;HPM_P1;HPM_P2
2023/08/30 00:00:42;;;;;;;12.93;11.73;;;14.50;87.50;;;12.98;100.00;95376.88;4981441;28;20077;-78
2023/08/30 00:03:07;;;;;;;11.93;10.82;;;14.50;87.40;;;12.98;100.00;95369.78;4980676;28;20408;-79
2023/08/30 00:05:33;;;;;;;12.43;11.32;;;14.60;87.30;;;12.99;100.00;95375.88;4962543;28;20042;-78
2023/08/30 00:07:59;;;;;;;12.25;11.15;;;14.60;87.30;;;13.01;100.00;95379.09;4939890;28;20106;-78
2023/08/30 00:10:25;;;;;;;12.93;11.73;;;14.60;87.50;;;12.99;100.00;95381.16;4985911;28;20035;-79
2023/08/30 00:12:50;;;;;;;13.43;12.13;;;14.50;87.30;;;13.01;100.00;95379.09;4982962;28;20596;-78
2023/08/30 00:15:16;;;;;;;13.77;12.55;;;14.50;87.40;;;12.98;100.00;95359.22;4979291;28;20556;-78
2023/08/30 00:17:42;;;;;;;14.00;12.80;;;14.50;87.50;;;13.00;100.00;95367.72;4964165;28;20196;-78
2023/08/30 00:20:08;;;;;;;15.00;13.65;;;14.50;87.50;;;12.96;100.00;95360.47;4987178;28;20039;-79
2023/08/30 00:22:35;;;;;;;14.70;13.32;;;14.60;87.60;;;13.01;100.00;95373.81;4948611;28;20026;-77
2023/08/30 00:25:01;;;;;;;14.35;13.13;;;14.60;87.60;;;13.01;100.00;95368.53;4948916;28;20035;-78
2023/08/30 00:27:27;;;;;;;14.55;13.30;;;14.60;87.40;;;12.99;100.00;95360.03;4977195;28;20018;-78
2023/08/30 00:29:52;;;;;;;17.10;15.43;;;14.60;87.50;;;13.00;100.00;95377.47;4951981;28;20030;-78
2023/08/30 00:32:18;;;;;;;16.38;14.98;;;14.60;87.20;;;12.99;100.00;95381.16;4976867;28;20061;-78
2023/08/30 00:34:44;;;;;;;16.75;15.02;;;14.60;87.50;;;12.97;100.00;95373.44;4983358;28;20054;-78
2023/08/30 00:37:10;;;;;;;16.02;14.45;;;14.50;87.40;;;12.98;100.00;95379.53;4978393;28;20097;-76
2023/08/30 00:39:39;;;;;;;16.85;15.35;;;14.50;87.60;;;12.96;100.00;95376.31;4959798;28;20506;-76
2023/08/30 00:42:07;;;;;;;17.02;15.45;;;14.50;87.60;;;12.95;100.00;95369.41;4960903;28;20522;-76
2023/08/30 00:44:35;;;;;;;17.55;15.82;;;14.40;87.70;;;12.95;100.00;95377.34;4971137;28;20086;-76
2023/08/30 00:47:04;;;;;;;17.15;15.65;;;14.50;87.70;;;12.93;100.00;95379.41;4962244;28;20526;-77
2023/08/30 00:49:32;;;;;;;16.90;15.50;;;14.40;87.60;;;12.84;100.00;95363.03;4933384;28;20035;-76
2023/08/30 00:52:03;;;;;;;16.38;14.95;;;14.30;87.40;;;12.85;100.00;95370.72;4963614;28;20449;-77
2023/08/30 00:54:29;;;;;;;17.10;15.30;;;14.20;87.60;;;12.83;100.00;95371.97;4944453;28;20026;-76
2023/08/30 00:56:55;;;;;;;16.05;14.35;;;14.20;87.50;;;12.82;100.00;95370.38;4955029;28;20084;-77
2023/08/30 00:59:21;;;;;;;15.80;14.25;;;14.20;87.60;;;12.81;100.00;95369.56;4957391;28;20039;-77
2023/08/30 01:01:48;;;;;;;16.48;14.98;;;14.20;87.70;;;12.75;100.00;95362.53;4963225;28;20031;-78
2023/08/30 01:04:14;;;;;;;15.98;14.57;;;14.30;87.40;;;12.78;100.00;95372.63;4952960;28;20103;-73
2023/08/30 01:06:39;;;;;;;16.25;14.65;;;14.30;87.40;;;12.78;100.00;95369.19;4980501;28;20041;-77
2023/08/30 01:09:05;;;;;;;16.75;15.07;;;14.30;87.50;;;12.75;100.00;95357.25;4932403;28;20422;-77
2023/08/30 01:11:46;;;;;;;16.20;14.65;;;14.30;87.50;;;12.73;100.00;95367.22;4978949;28;20023;-77
2023/08/30 01:14:20;;;;;;;;;;;14.30;87.20;;;12.74;100.00;95373.31;4957473;28;20042;-76
2023/08/30 01:16:46;;;;;;;15.80;14.23;;;14.20;87.40;;;12.71;100.00;95379.84;4982312;28;19918;-76
2023/08/30 01:19:45;;;;;;;16.60;14.88;;;14.30;87.50;;;12.71;100.00;95382.47;4945050;28;20082;-77
2023/08/30 01:22:17;;;;;;;16.63;14.90;;;14.20;87.40;;;12.71;100.00;95376.38;4980534;28;20027;-77
2023/08/30 01:25:21;;;;;;;16.23;14.68;;;14.30;87.40;;;12.74;100.00;95370.66;4949441;28;20077;-77
2023/08/30 01:27:47;;;;;;;15.68;14.27;;;14.20;87.50;;;12.68;100.00;95364.44;4978097;28;20034;-77
2023/08/30 01:30:13;;;;;;;16.17;14.68;;;14.30;87.40;;;12.71;100.00;95368.47;4961425;28;20375;-77
2023/08/30 01:32:39;;;;;;;16.75;15.15;;;14.20;87.40;;;12.67;100.00;95362.81;4979603;28;20093;-77
2023/08/30 01:35:05;;;;;;;15.95;14.55;;;14.20;87.30;;;12.66;100.00;95358.56;4968888;28;20030;-77
2023/08/30 01:37:31;;;;;;;16.98;15.40;;;14.10;87.30;;;12.66;100.00;95363.84;4961062;28;20054;-77
2023/08/30 01:39:57;;;;;;;16.75;15.25;;;14.20;87.40;;;12.62;100.00;95365.31;4958315;28;20102;-77
2023/08/30 01:42:24;;;;;;;15.40;13.90;;;14.10;87.60;;;12.64;100.00;95362.44;4977968;28;20046;-77
2023/08/30 01:44:54;;;;;;;15.93;14.43;;;14.10;87.50;;;12.63;100.00;95372.19;4952957;28;20023;-77
2023/08/30 01:47:20;;;;;;;17.40;15.80;;;14.10;87.50;;;12.61;100.00;95368.97;4959240;28;20043;-77
2023/08/30 01:49:45;;;;;;;17.27;15.57;;;14.10;87.60;;;12.58;100.00;95361.50;4982958;28;20065;-77
2023/08/30 01:52:11;;;;;;;17.48;15.88;;;14.10;87.80;;;12.61;100.00;95374.25;4950250;28;20074;-76
2023/08/30 01:54:38;;;;;;;17.63;16.02;;;14.10;87.50;;;12.63;100.00;95368.75;4975190;28;20053;-77
2023/08/30 01:57:07;;;;;;;17.27;15.68;;;14.10;87.50;;;12.61;100.00;95368.97;4949449;28;20077;-78
2023/08/30 01:59:32;;;;;;;18.23;16.42;;;14.10;87.40;;;12.62;100.00;95372.41;4972350;28;20034;-77
2023/08/30 02:01:58;;;;;;;55.40;44.47;;;14.10;87.40;;;12.62;100.00;95381.13;4963477;28;20093;-77
2023/08/30 02:04:24;;;;;;;29.50;26.42;;;14.10;87.70;;;12.62;100.00;95367.13;4965147;28;20066;-77
2023/08/30 02:07:03;;;;;;;20.48;18.52;;;14.20;87.50;;;12.65;100.00;95374.59;4958792;28;20085;-77
2023/08/30 02:09:34;;;;;;;18.42;16.80;;;14.20;87.50;;;12.66;100.00;95370.94;4960885;28;20023;-77
2023/08/30 02:12:00;;;;;;;17.77;16.15;;;14.20;87.40;;;12.65;100.00;95367.50;4978073;28;20030;-77
2023/08/30 02:14:26;;;;;;;17.70;16.05;;;14.20;87.20;;;12.64;100.00;95368.53;4948657;28;20027;-77
2023/08/30 02:16:53;;;;;;;16.95;15.25;;;14.20;87.30;;;12.65;100.00;95375.41;4948018;28;20556;-77
2023/08/30 02:19:20;;;;;;;18.70;17.00;;;14.20;87.30;;;12.66;100.00;95369.09;4947035;28;20046;-77
2023/08/30 02:21:47;;;;;;;17.95;16.15;;;14.20;87.40;;;12.68;100.00;95368.91;4946802;28;20018;-78
2023/08/30 02:24:13;;;;;;;19.60;16.83;;;14.20;87.30;;;12.68;100.00;95369.72;4962704;28;20037;-79
2023/08/30 02:26:39;;;;;;;17.73;15.93;;;14.20;87.30;;;12.68;100.00;95369.72;4966783;28;20418;-77
2023/08/30 02:29:05;;;;;;;18.45;16.65;;;14.10;87.30;;;12.64;100.00;95365.06;4966534;28;20117;-78
2023/08/30 02:31:30;;;;;;;17.30;15.45;;;14.20;87.30;;;12.65;100.00;95364.84;4964191;28;20038;-77
2023/08/30 02:33:56;;;;;;;16.90;15.40;;;14.20;87.40;;;12.66;100.00;95365.66;4978529;28;20051;-76
2023/08/30 02:36:22;;;;;;;17.45;15.75;;;14.20;87.40;;;12.67;100.00;95367.28;4963313;28;20071;-77
2023/08/30 02:38:48;;;;;;;17.98;16.23;;;14.20;87.20;;;12.66;100.00;95366.47;4976643;28;20093;-76
2023/08/30 02:41:13;;;;;;;16.50;15.00;;;14.20;87.10;;;12.67;100.00;95365.44;4979108;28;20054;-77
2023/08/30 02:43:39;;;;;;;17.58;15.68;;;14.20;87.40;;;12.69;100.00;95366.06;4958296;28;20054;-77
2023/08/30 02:46:05;;;;;;;18.27;16.42;;;14.20;87.30;;;12.69;100.00;95370.53;4978145;28;20073;-77
2023/08/30 02:48:34;;;;;;;17.95;16.08;;;14.20;87.30;;;12.68;100.00;95369.72;4975489;28;20048;-76
2023/08/30 02:51:00;;;;;;;18.30;16.50;;;14.30;87.40;;;12.68;100.00;95367.09;4983194;28;20046;-77
2023/08/30 02:53:25;;;;;;;17.73;16.05;;;14.20;87.00;;;12.67;100.00;95369.91;4980721;28;20026;-76
2023/08/30 02:55:51;;;;;;;18.10;16.20;;;14.20;86.60;;;12.67;100.00;95368.09;4957266;28;20106;-78
2023/08/30 02:58:19;;;;;;;18.13;16.30;;;14.20;87.20;;;12.66;100.00;95377.03;4958652;28;20085;-78
2023/08/30 03:00:45;;;;;;;18.27;16.48;;;14.10;87.20;;;12.68;100.00;95374.19;4967257;28;20085;-77
2023/08/30 03:03:10;;;;;;;18.13;16.40;;;14.20;87.20;;;12.67;100.00;95372.56;4944590;28;20030;-78
2023/08/30 03:05:37;;;;;;;17.95;16.23;;;14.20;87.30;;;12.64;100.00;95368.53;4979970;28;20043;-76
2023/08/30 03:08:03;;;;;;;18.05;16.35;;;14.20;87.30;;;12.66;100.00;95371.75;4948685;28;20127;-77
2023/08/30 03:10:28;;;;;;;18.20;16.48;;;14.20;87.20;;;12.66;100.00;95371.75;4948336;28;20664;-76
2023/08/30 03:12:54;;;;;;;18.10;16.40;;;14.20;87.20;;;12.67;100.00;95368.09;4949876;28;20030;-78
2023/08/30 03:15:20;;;;;;;17.73;15.82;;;14.30;87.20;;;12.68;100.00;95368.91;4949162;28;20031;-77
2023/08/30 03:17:46;;;;;;;18.33;16.63;;;14.30;87.20;;;12.66;100.00;95366.47;4975933;28;20023;-77
2023/08/30 03:20:11;;;;;;;18.08;16.17;;;14.20;87.30;;;12.68;100.00;95369.72;4966212;28;20108;-77
2023/08/30 03:22:37;;;;;;;16.73;15.15;;;14.30;87.20;;;12.70;100.00;95362.41;4970252;28;20028;-76
2023/08/30 03:25:03;;;;;;;17.27;15.60;;;14.30;87.20;;;12.71;100.00;95361.38;4979471;28;20438;-77
2023/08/30 03:27:30;;;;;;;16.75;15.15;;;14.30;86.90;;;12.70;100.00;95357.13;4980795;28;20035;-77
2023/08/30 03:29:56;;;;;;;18.15;16.27;;;14.20;86.70;;;12.70;100.00;95364.22;4984399;28;20062;-77
2023/08/30 03:32:21;;;;;;;32.83;29.55;;;14.20;86.80;;;12.69;100.00;95363.41;4948913;28;20032;-77
2023/08/30 03:34:48;;;;;;;22.10;19.80;;;14.30;87.30;;;12.71;100.00;95357.91;4958549;28;20038;-76
2023/08/30 03:37:16;;;;;;;17.95;16.25;;;14.30;87.00;;;12.70;100.00;95357.13;4950251;28;20038;-77
2023/08/30 03:39:42;;;;;;;20.45;18.27;;;14.20;86.80;;;12.66;100.00;95352.47;4977583;28;20439;-77
2023/08/30 03:42:08;;;;;;;21.85;19.60;;;14.20;86.90;;;12.70;100.00;95366.88;4947852;28;20084;-76
2023/08/30 03:44:34;;;;;;;23.83;21.42;;;14.20;87.20;;;12.70;100.00;95369.50;4976115;28;20125;-77
2023/08/30 03:47:00;;;;;;;20.55;18.40;;;14.30;87.10;;;12.68;100.00;95364.44;4979525;28;20112;-77
2023/08/30 03:49:27;;;;;;;17.13;15.52;;;14.30;87.00;;;12.69;100.00;95363.41;4974188;28;20089;-76
2023/08/30 03:51:53;;;;;;;17.85;16.25;;;14.30;86.80;;;12.69;100.00;95365.25;4963617;28;20027;-77
2023/08/30 03:54:19;;;;;;;20.42;18.35;;;14.20;86.60;;;12.69;100.00;95366.06;4963507;28;20039;-77
2023/08/30 03:56:45;;;;;;;18.45;16.65;;;14.30;86.80;;;12.66;100.00;95363.84;4964148;28;20057;-77
2023/08/30 03:59:11;;;;;;;18.30;16.40;;;14.20;86.60;;;12.66;100.00;95366.47;4960514;28;20478;-77
2023/08/30 04:01:37;;;;;;;17.88;16.13;;;14.20;86.80;;;12.69;100.00;95368.69;4952434;28;20038;-78
2023/08/30 04:04:03;;;;;;;28.40;25.50;;;14.20;86.90;;;12.67;100.00;95368.09;4964523;28;20287;-77
2023/08/30 04:06:29;;;;;;;20.67;18.58;;;14.20;87.00;;;12.66;100.00;95371.75;4978808;28;20058;-77
2023/08/30 04:08:54;;;;;;;25.10;22.63;;;14.10;86.80;;;12.67;100.00;95368.09;4978433;28;20144;-77
2023/08/30 04:11:20;;;;;;;24.75;22.33;;;14.20;87.00;;;12.67;100.00;95357.53;4969944;28;20033;-76
2023/08/30 04:13:46;;;;;;;26.98;24.30;;;14.30;86.90;;;12.69;100.00;95365.25;4965352;28;20023;-76
2023/08/30 04:16:11;;;;;;;19.85;17.30;;;14.30;87.00;;;12.68;100.00;95367.09;4951038;28;20452;-77
2023/08/30 04:18:37;;;;;;;18.70;16.88;;;14.30;87.10;;;12.70;100.00;95362.41;4964291;28;20396;-77
2023/08/30 04:21:03;;;;;;;18.08;16.30;;;14.30;86.90;;;12.69;100.00;95376.63;4963499;28;20466;-78
2023/08/30 04:23:29;;;;;;;17.58;15.85;;;14.30;86.60;;;12.69;100.00;95363.41;4949985;28;20204;-76
2023/08/30 04:25:55;;;;;;;17.17;15.45;;;14.20;86.70;;;12.68;100.00;95367.09;4964350;28;20092;-77
2023/08/30 04:28:21;;;;;;;22.92;20.73;;;14.20;86.80;;;12.68;100.00;95369.72;4956599;28;20038;-77
2023/08/30 04:30:47;;;;;;;19.85;17.75;;;14.20;86.50;;;12.68;100.00;95364.44;4997224;28;20034;-78
2023/08/30 04:33:13;;;;;;;18.23;16.52;;;14.30;86.30;;;12.66;100.00;95368.31;4945252;28;20031;-77
2023/08/30 04:35:39;;;;;;;17.60;15.90;;;14.20;86.30;;;12.63;100.00;95361.63;4956858;28;20038;-77
2023/08/30 04:38:04;;;;;;;19.00;17.00;;;14.10;86.40;;;12.67;100.00;95368.09;4949241;28;20075;-78
2023/08/30 04:40:31;;;;;;;19.33;17.33;;;14.20;86.40;;;12.66;100.00;95370.94;4979199;28;20027;-77
2023/08/30 04:42:58;;;;;;;18.33;16.55;;;14.10;86.60;;;12.64;100.00;95368.53;4990216;28;20045;-77
2023/08/30 04:45:24;;;;;;;18.40;16.60;;;14.20;86.50;;;12.62;100.00;95365.31;4936840;28;20027;-77
2023/08/30 04:47:50;;;;;;;19.00;17.20;;;14.20;86.50;;;12.64;100.00;95368.53;4965918;28;20461;-76
2023/08/30 04:50:16;;;;;;;17.63;15.82;;;14.20;86.70;;;12.68;100.00;95368.91;4962363;28;20039;-77
2023/08/30 04:52:42;;;;;;;18.83;16.90;;;14.30;86.80;;;12.67;100.00;95376.00;4948617;28;20030;-78
2023/08/30 04:55:08;;;;;;;19.45;17.05;;;14.20;86.40;;;12.67;100.00;95365.44;4978774;28;20474;-77
2023/08/30 04:57:34;;;;;;;18.85;16.98;;;14.20;86.30;;;12.68;100.00;95375.00;4995499;28;20033;-77
2023/08/30 05:00:04;;;;;;;18.90;17.10;;;14.30;86.40;;;12.67;100.00;95376.00;4982190;28;20042;-77
2023/08/30 05:02:30;;;;;;;19.08;17.25;;;14.20;86.30;;;12.68;100.00;95380.28;4979860;28;20050;-75
2023/08/30 05:04:55;;;;;;;21.50;19.27;;;14.20;86.20;;;12.67;100.00;95378.63;4975102;28;20093;-79
2023/08/30 05:07:21;;;;;;;22.02;19.70;;;14.20;86.30;;;12.67;100.00;95378.63;4950993;28;20062;-71
2023/08/30 05:09:47;;;;;;;19.83;17.77;;;14.20;86.30;;;12.66;100.00;95382.31;4977041;28;20455;-72
2023/08/30 05:12:13;;;;;;;18.88;16.95;;;14.20;86.30;;;12.67;100.00;95383.91;4971728;28;20047;-69
2023/08/30 05:14:40;;;;;;;19.73;17.73;;;14.20;86.40;;;12.66;100.00;95376.22;4950170;28;20062;-73
2023/08/30 05:17:06;;;;;;;19.05;16.95;;;14.20;86.30;;;12.67;100.00;95369.91;4932841;28;20462;-76
2023/08/30 05:19:32;;;;;;;17.90;16.20;;;14.30;86.30;;;12.68;100.00;95372.38;4932457;28;20110;-76
2023/08/30 05:21:57;;;;;;;17.90;16.15;;;14.20;86.20;;;12.71;100.00;95373.75;4978070;28;20033;-77
2023/08/30 05:24:23;;;;;;;18.38;16.58;;;14.30;86.20;;;12.68;100.00;95375.00;4952515;28;20054;-76
2023/08/30 05:26:49;;;;;;;18.38;16.50;;;14.30;85.90;;;12.71;100.00;95376.38;4961966;28;20057;-76
2023/08/30 05:29:15;;;;;;;18.60;16.67;;;14.40;86.20;;;12.71;100.00;95374.56;4987838;28;20502;-77
2023/08/30 05:31:41;;;;;;;17.90;16.10;;;14.40;85.80;;;12.75;100.00;95381.00;4947985;28;20100;-77
2023/08/30 05:34:07;;;;;;;19.70;17.33;;;14.40;85.70;;;12.78;100.00;95380.56;4950977;28;20031;-75
2023/08/30 05:36:32;;;;;;;18.58;16.73;;;14.40;85.90;;;12.80;100.00;95383.78;4949312;28;20046;-75
2023/08/30 05:38:58;;;;;;;17.30;15.60;;;14.50;85.80;;;12.82;100.00;95379.09;4953229;28;20042;-76
2023/08/30 05:41:24;;;;;;;18.67;16.73;;;14.60;85.50;;;12.84;100.00;95382.31;4963306;28;20347;-76
2023/08/30 05:43:51;;;;;;;17.30;15.45;;;14.50;85.10;;;12.83;100.00;95383.34;4945071;28;20079;-75
2023/08/30 05:46:17;;;;;;;17.42;15.63;;;14.60;85.50;;;12.80;100.00;95375.06;4976618;28;20093;-76
2023/08/30 05:48:43;;;;;;;15.25;13.80;;;14.40;85.60;;;12.83;100.00;95372.78;4966085;28;20027;-76
2023/08/30 05:51:08;;;;;;;16.08;14.57;;;14.40;85.50;;;12.86;100.00;95377.63;4962354;28;20031;-76
2023/08/30 05:53:34;;;;;;;15.52;14.02;;;14.50;85.40;;;12.88;100.00;95380.84;4976634;28;20513;-75
2023/08/30 05:56:00;;;;;;;15.43;13.93;;;14.60;85.40;;;12.87;100.00;95373.94;4964793;28;20093;-76
2023/08/30 05:58:25;;;;;;;16.02;14.43;;;14.50;85.10;;;12.92;100.00;95378.59;4935466;28;20455;-76
2023/08/30 06:00:51;;;;;;;15.85;14.25;;;14.60;85.20;;;12.91;100.00;95373.53;4956120;28;20030;-78
2023/08/30 06:03:17;;;;;;;16.48;14.57;;;14.60;85.10;;;12.88;100.00;95375.56;4962676;28;20078;-76
2023/08/30 06:05:43;;;;;;;15.80;14.23;;;14.60;85.30;;;12.92;100.00;95378.59;4979527;28;20073;-77
2023/08/30 06:08:09;;;;;;;16.05;14.48;;;14.60;85.40;;;12.98;100.00;95390.09;4980641;28;20034;-70
2023/08/30 06:10:36;;;;;;;15.70;14.13;;;14.70;85.40;;;13.01;100.00;95385.16;4964153;28;20405;-69
2023/08/30 06:13:02;;;;;;;15.52;13.93;;;14.70;85.30;;;13.02;100.00;95386.78;4944360;28;20458;-71
2023/08/30 06:15:28;;;;;;;15.35;13.75;;;14.70;85.30;;;13.02;100.00;95378.06;4944847;28;20053;-68
2023/08/30 06:17:54;;;;;;;13.88;12.50;;;14.60;84.70;;;13.04;100.00;95384.72;4962305;28;20015;-70
2023/08/30 06:20:20;;;;;;;15.32;13.85;;;14.70;85.00;;;13.09;100.00;95386.69;4976356;28;20037;-69
2023/08/30 06:22:48;;;;;;;14.20;12.90;;;14.80;85.10;;;13.13;100.00;95393.97;4945742;28;20045;-70
2023/08/30 06:25:14;;;;;;;15.05;13.52;;;14.80;84.70;;;13.16;100.00;95395.38;4972037;28;20042;-70
2023/08/30 06:27:43;;;;;;;14.85;13.45;;;14.80;84.70;;;13.18;100.00;95395.97;4948713;28;20039;-71
2023/08/30 06:30:12;;;;;;;13.88;12.57;;;14.90;84.80;;;13.22;100.00;95402.41;4945543;28;20602;-72
2023/08/30 06:32:38;;;;;;;13.55;12.20;;;14.90;84.40;;;13.23;100.00;95390.81;4967230;28;20027;-68
2023/08/30 06:35:04;;;;;;;13.43;12.13;;;15.00;84.40;;;13.25;100.00;95395.88;4979385;28;20520;-69
2023/08/30 06:37:32;;;;;;;13.95;12.65;;;14.90;84.30;;;13.27;100.00;95396.47;4969164;28;20609;-71
2023/08/30 06:39:58;;;;;;;14.05;12.65;;;14.90;84.40;;;13.28;100.00;95385.69;4967052;28;20137;-67
2023/08/30 06:42:25;;;;;;;14.35;12.95;;;15.00;84.40;;;13.29;100.00;95384.66;4977335;28;20023;-68
2023/08/30 06:44:50;;;;;;;14.20;12.43;;;15.00;84.40;;;13.32;100.00;95381.56;4962475;28;20043;-73
2023/08/30 06:47:16;;;;;;;13.98;12.65;;;15.00;84.30;;;13.35;100.00;95381.13;4994506;28;20054;-67
2023/08/30 06:49:42;;;;;;;13.52;12.13;;;15.10;84.20;;;13.36;100.00;95387.22;4964307;28;20303;-72
2023/08/30 06:52:08;;;;;;;11.73;10.63;;;15.00;83.90;;;13.39;100.00;95382.28;4975705;28;20521;-68
2023/08/30 06:54:34;;;;;;;12.20;11.07;;;15.10;84.00;;;13.42;100.00;95386.31;4967926;28;20023;-67
2023/08/30 06:57:00;;;;;;;12.57;11.35;;;15.10;83.60;;;13.40;100.00;95388.38;4959809;28;20100;-68
2023/08/30 06:59:27;;;;;;;13.13;11.95;;;15.20;83.60;;;13.47;100.00;95392.53;4955020;28;20038;-68
2023/08/30 07:01:52;;;;;;;13.00;11.70;;;15.20;83.50;;;13.51;100.00;95389.44;4980867;28;20022;-67
2023/08/30 07:04:18;;;;;;;12.80;11.60;;;15.40;83.60;;;13.57;100.00;95391.19;4971992;28;20031;-70
2023/08/30 07:06:44;;;;;;;12.80;11.50;;;15.40;83.30;;;13.60;100.00;95385.47;4970686;28;20585;-70
2023/08/30 07:09:11;;;;;;;13.90;11.43;;;15.50;82.80;;;13.68;100.00;95387.78;4953825;28;20027;-70
2023/08/30 07:11:37;;;;;;;12.75;11.57;;;15.50;82.90;;;13.74;100.00;95385.03;4973128;28;20037;-69
2023/08/30 07:14:03;;;;;;;13.60;12.30;;;15.60;82.80;;;13.79;100.00;95382.50;4946834;28;20038;-69
2023/08/30 07:16:31;;;;;;;12.50;11.32;;;15.60;82.40;;;13.85;100.00;95385.31;4966197;28;20027;-67
2023/08/30 07:18:57;;;;;;;12.90;11.65;;;15.60;81.70;;;13.87;100.00;95383.25;4964032;28;20506;-67
2023/08/30 07:21:23;;;;;;;12.30;10.77;;;15.60;81.50;;;13.91;100.00;95387.84;4965226;28;20038;-70
2023/08/30 07:23:49;;;;;;;14.63;13.13;;;15.70;81.50;;;13.95;100.00;95374.97;4980167;28;20073;-70
2023/08/30 07:26:14;;;;;;;12.98;11.68;;;15.80;81.60;;;14.00;100.00;95388.31;4969789;28;20074;-69
2023/08/30 07:28:40;;;;;;;12.93;11.73;;;15.90;80.90;;;14.03;100.00;95378.09;4981469;28;20746;-74
2023/08/30 07:31:06;;;;;;;12.93;11.73;;;15.90;80.90;;;14.09;100.00;95385.13;4974169;28;20032;-72
2023/08/30 07:33:32;;;;;;;12.38;11.18;;;15.90;80.90;;;14.12;100.00;95386.50;4979717;28;20448;-70
2023/08/30 07:35:58;;;;;;;12.23;11.13;;;15.90;80.50;;;14.12;100.00;95383.06;4951074;28;20033;-74
2023/08/30 07:38:24;;;;;;;12.98;11.68;;;16.00;81.20;;;14.13;100.00;95376.72;4966655;28;20507;-74
2023/08/30 07:40:50;;;;;;;12.40;11.20;;;16.00;81.10;;;14.16;100.00;95386.84;4947992;28;20031;-74
2023/08/30 07:43:15;;;;;;;12.73;11.43;;;15.90;81.00;;;14.14;100.00;95392.38;4975999;28;20035;-76
2023/08/30 07:45:41;;;;;;;13.88;12.48;;;15.80;80.70;;;14.15;100.00;95396.63;4933267;28;20047;-73
2023/08/30 07:48:07;;;;;;;15.20;13.77;;;15.90;80.70;;;14.18;100.00;95395.34;4982920;28;20015;-75
2023/08/30 07:50:32;;;;;;;24.17;21.90;;;16.10;80.90;;;14.25;100.00;95393.41;4981162;28;20034;-74
2023/08/30 07:52:58;;;;;;;17.40;15.63;;;16.20;81.20;;;14.30;100.00;95398.84;4975518;28;20443;-74
2023/08/30 07:55:24;;;;;;;16.10;14.50;;;16.20;81.20;;;14.32;100.00;95394.91;4961270;28;20020;-75
2023/08/30 07:57:50;;;;;;;14.52;13.10;;;16.20;80.40;;;14.36;100.00;95397.91;4973831;28;20022;-74
2023/08/30 08:00:15;;;;;;;14.68;13.38;;;16.10;80.50;;;14.37;100.00;95396.88;4984758;28;20133;-74
2023/08/30 08:02:41;;;;;;;14.73;13.23;;;16.20;80.40;;;14.41;100.00;95406.75;4956194;28;20026;-75
2023/08/30 08:05:07;;;;;;;13.57;12.35;;;16.30;80.40;;;14.45;100.00;95401.84;4946431;28;20025;-75
2023/08/30 08:07:33;;;;;;;14.18;12.93;;;16.40;79.70;;;14.51;100.00;95403.59;4955383;28;20437;-75
2023/08/30 08:09:59;;;;;;;13.75;12.50;;;16.40;80.00;;;14.58;100.00;95406.91;4952565;28;20035;-75
2023/08/30 08:12:26;;;;;;;13.35;12.15;;;16.60;80.00;;;14.62;100.00;95405.41;4964239;28;20516;-75
2023/08/30 08:14:52;;;;;;;13.73;12.43;;;16.80;79.50;;;14.77;100.00;95401.50;4955395;28;20071;-75
2023/08/30 08:17:17;;;;;;;13.65;12.27;;;17.10;78.50;;;15.07;100.00;95404.78;4983953;28;20141;-76
2023/08/30 08:19:43;;;;;;;13.77;12.52;;;18.00;75.70;;;15.31;100.00;95398.38;4963909;28;20035;-76
2023/08/30 08:22:09;;;;;;;12.90;11.70;;;18.10;73.50;;;15.55;100.00;95400.94;4998175;28;20062;-75
2023/08/30 08:24:35;;;;;;;12.75;11.32;;;18.40;73.70;;;15.79;100.00;95407.78;4967233;28;20050;-75
2023/08/30 08:27:01;;;;;;;13.13;11.93;;;18.70;73.50;;;15.97;100.00;95404.13;4954711;28;20043;-74
2023/08/30 08:29:27;;;;;;;13.32;12.05;;;18.60;72.60;;;16.10;100.00;95401.19;4983111;28;20557;-75
2023/08/30 08:31:53;;;;;;;14.20;12.73;;;18.60;72.80;;;16.18;100.00;95406.06;4947361;28;20056;-76
2023/08/30 08:34:19;;;;;;;13.38;12.15;;;18.50;72.10;;;16.29;100.00;95401.72;4967794;28;20601;-74
2023/08/30 08:36:45;;;;;;;12.82;11.68;;;18.60;70.70;;;16.34;100.00;95399.16;4948667;28;20860;-74
2023/08/30 08:39:10;;;;;;;11.23;10.18;;;18.60;70.10;;;16.32;100.00;95395.97;4976148;28;20109;-74
2023/08/30 08:41:41;;;;;;;12.88;11.30;;;18.60;70.70;;;16.42;100.00;95409.38;4965573;28;20109;-71
2023/08/30 08:44:08;;;;;;;11.70;10.50;;;18.60;70.30;;;16.52;100.00;95404.22;4961164;28;20038;-73
2023/08/30 08:46:36;;;;;;;10.95;9.95;;;18.90;71.30;;;16.62;100.00;95400.91;4964913;28;21925;-71
2023/08/30 08:49:14;;;;;;;11.25;9.98;;;19.00;70.10;;;16.74;100.00;95392.84;4962739;28;20113;-71
2023/08/30 08:51:41;;;;;;;11.15;9.98;;;19.20;71.10;;;16.87;100.00;95402.34;4961089;28;20034;-70
2023/08/30 08:54:09;;;;;;;11.45;10.35;;;19.40;69.60;;;17.05;100.00;95399.41;4940852;28;20359;-74
2023/08/30 08:56:34;;;;;;;10.27;9.27;;;19.90;69.20;;;17.25;100.00;95390.88;4973446;28;20089;-70
2023/08/30 08:59:00;;;;;;;9.93;8.80;;;20.10;65.40;;;17.44;100.00;95392.19;4961903;28;20030;-77
2023/08/30 09:01:26;;;;;;;9.38;8.35;;;20.40;64.70;;;17.66;100.00;95395.59;4968379;28;20019;-72
2023/08/30 09:03:52;;;;;;;10.98;8.45;;;20.70;62.90;;;17.89;100.00;95391.06;4947953;28;20461;-73
2023/08/30 09:06:18;;;;;;;8.93;7.78;;;21.00;63.30;;;18.09;100.00;95380.59;4960696;28;20058;-69
2023/08/30 09:08:44;;;;;;;8.48;7.68;;;21.10;60.80;;;18.21;100.00;95373.25;4961991;28;20080;-69
2023/08/30 09:11:10;;;;;;;8.45;7.65;;;21.10;61.10;;;18.39;99.04;95377.38;4964907;28;20034;-73
2023/08/30 09:13:36;;;;;;;8.25;7.35;;;21.30;60.30;;;18.55;97.79;95367.63;4941725;28;20030;-75
2023/08/30 09:16:04;;;;;;;8.63;6.90;;;21.50;60.40;;;18.70;97.39;95373.09;4979454;28;20576;-72
2023/08/30 09:18:30;;;;;;;7.95;7.15;;;21.50;61.40;;;18.80;97.05;95378.50;4957599;28;20041;-73
2023/08/30 09:21:25;;;;;;;7.20;6.57;;;21.50;62.00;;;18.91;92.54;95368.69;4977086;28;20030;-73
2023/08/30 09:24:02;;;;;;;6.22;5.63;;;21.60;61.70;;;19.03;88.93;95355.16;4932135;28;20041;-73
2023/08/30 09:26:28;;;;;;;6.93;6.00;;;21.70;58.50;;;19.11;93.78;95375.97;4964240;28;20046;-73
2023/08/30 09:28:55;;;;;;;10.35;8.90;;;21.60;60.50;;;19.11;93.58;95357.31;4962673;28;20104;-73
2023/08/30 09:31:21;;;;;;;6.93;6.22;;;21.60;60.70;;;19.15;92.92;95353.84;4975871;28;20056;-72
2023/08/30 09:33:50;;;;;;;4.95;4.53;;;21.60;60.90;;;19.21;92.72;95357.34;4934099;28;20030;-75
2023/08/30 09:36:15;;;;;;;4.82;4.43;;;21.80;59.90;;;19.45;93.20;95357.69;4996271;28;20486;-72
2023/08/30 09:38:48;;;;;;;5.70;4.60;;;22.60;60.60;;;19.80;87.12;95349.81;4962375;28;20019;-79
2023/08/30 09:41:13;;;;;;;4.88;3.90;;;23.00;57.30;;;20.05;88.10;95357.03;4936911;28;20030;-76
2023/08/30 09:43:43;;;;;;;5.45;3.47;;;23.20;55.00;;;20.25;86.67;95356.22;4972146;28;20113;-71
2023/08/30 09:46:09;;;;;;;4.07;3.23;;;23.20;57.20;;;20.31;86.56;95355.16;4978387;28;20128;-69
2023/08/30 09:48:34;;;;;;;4.07;3.67;;;23.10;55.60;;;20.44;84.07;95348.50;4970415;28;20292;-70
2023/08/30 09:51:00;;;;;;;4.57;3.10;;;23.30;52.80;;;20.49;82.36;95341.28;4960005;28;21648;-72
2023/08/30 09:53:27;;;;;;;3.50;2.85;;;23.50;53.70;;;20.82;81.65;95340.94;4946045;28;20027;-68
2023/08/30 09:55:53;;;;;;;2.90;2.25;;;24.20;52.50;;;21.28;80.86;95325.56;4945361;28;20019;-70
2023/08/30 09:58:21;;;;;;;2.55;2.30;;;25.10;50.50;;;21.78;76.48;95318.31;4964884;28;20446;-69
2023/08/30 10:00:47;;;;;;;3.40;1.80;;;26.00;47.00;;;22.09;74.36;95308.19;4937567;28;20556;-70